sensor_id;sensor_type;location;lat;lon;timestamp;temperature;humidity
64111;DHT22;50401;48.188;11.566;2022-11-15T00:00:11;6.35;83.25
64111;DHT22;50401;48.188;11.566;2022-11-15T00:02:36;6.30;82.78
64111;DHT22;50401;48.188;11.566;2022-11-15T00:05:02;6.21;83.15
64111;DHT22;50401;48.188;11.566;2022-11-15T00:07:27;6.14;83.40
64111;DHT22;50401;48.188;11.566;2022-11-15T00:09:52;6.21;83.11
64111;DHT22;50401;48.188;11.566;2022-11-15T00:12:20;6.20;82.97
64111;DHT22;50401;48.188;11.566;2022-11-15T00:14:45;6.18;82.94
64111;DHT22;50401;48.188;11.566;2022-11-15T00:17:11;6.14;83.05
64111;DHT22;50401;48.188;11.566;2022-11-15T00:19:36;6.25;82.76
64111;DHT22;50401;48.188;11.566;2022-11-15T00:22:01;6.38;82.60
64111;DHT22;50401;48.188;11.566;2022-11-15T00:24:27;6.49;82.23
64111;DHT22;50401;48.188;11.566;2022-11-15T00:26:52;6.59;81.83
64111;DHT22;50401;48.188;11.566;2022-11-15T00:29:17;6.34;81.95
64111;DHT22;50401;48.188;11.566;2022-11-15T00:31:45;6.37;81.99
64111;DHT22;50401;48.188;11.566;2022-11-15T00:34:11;6.34;82.04
64111;DHT22;50401;48.188;11.566;2022-11-15T00:36:36;6.39;81.71
64111;DHT22;50401;48.188;11.566;2022-11-15T00:39:03;6.14;82.43
64111;DHT22;50401;48.188;11.566;2022-11-15T00:41:29;5.96;82.97
64111;DHT22;50401;48.188;11.566;2022-11-15T00:43:54;5.96;82.84
64111;DHT22;50401;48.188;11.566;2022-11-15T00:46:23;6.00;82.69
64111;DHT22;50401;48.188;11.566;2022-11-15T00:48:50;6.00;82.39
64111;DHT22;50401;48.188;11.566;2022-11-15T00:51:16;6.00;82.50
64111;DHT22;50401;48.188;11.566;2022-11-15T00:53:41;5.83;82.83
64111;DHT22;50401;48.188;11.566;2022-11-15T00:56:06;5.80;82.76
64111;DHT22;50401;48.188;11.566;2022-11-15T00:58:32;5.92;82.61
64111;DHT22;50401;48.188;11.566;2022-11-15T01:01:04;6.02;82.03
64111;DHT22;50401;48.188;11.566;2022-11-15T01:03:32;5.93;81.68
64111;DHT22;50401;48.188;11.566;2022-11-15T01:05:58;6.14;81.04
64111;DHT22;50401;48.188;11.566;2022-11-15T01:08:24;6.25;80.84
64111;DHT22;50401;48.188;11.566;2022-11-15T01:10:50;6.20;80.72
64111;DHT22;50401;48.188;11.566;2022-11-15T01:13:15;6.10;81.06
64111;DHT22;50401;48.188;11.566;2022-11-15T01:15:40;5.93;81.78
64111;DHT22;50401;48.188;11.566;2022-11-15T01:18:05;5.75;82.03
64111;DHT22;50401;48.188;11.566;2022-11-15T01:20:31;5.95;81.65
64111;DHT22;50401;48.188;11.566;2022-11-15T01:22:56;6.07;80.88
64111;DHT22;50401;48.188;11.566;2022-11-15T01:25:21;6.16;80.50
64111;DHT22;50401;48.188;11.566;2022-11-15T01:27:46;6.20;79.93
64111;DHT22;50401;48.188;11.566;2022-11-15T01:30:12;6.25;79.75
64111;DHT22;50401;48.188;11.566;2022-11-15T01:32:37;6.34;79.45
64111;DHT22;50401;48.188;11.566;2022-11-15T01:35:02;5.99;79.88
64111;DHT22;50401;48.188;11.566;2022-11-15T01:37:28;5.78;80.90
64111;DHT22;50401;48.188;11.566;2022-11-15T01:39:53;5.90;80.49
64111;DHT22;50401;48.188;11.566;2022-11-15T01:42:18;5.82;80.72
64111;DHT22;50401;48.188;11.566;2022-11-15T01:44:45;5.86;80.33
64111;DHT22;50401;48.188;11.566;2022-11-15T01:47:13;5.89;80.40
64111;DHT22;50401;48.188;11.566;2022-11-15T01:49:41;5.96;80.20
64111;DHT22;50401;48.188;11.566;2022-11-15T01:52:13;5.51;81.05
64111;DHT22;50401;48.188;11.566;2022-11-15T01:54:40;5.56;81.13
64111;DHT22;50401;48.188;11.566;2022-11-15T01:57:06;5.78;80.87
64111;DHT22;50401;48.188;11.566;2022-11-15T01:59:33;5.93;80.48
64111;DHT22;50401;48.188;11.566;2022-11-15T02:01:59;6.04;80.12
64111;DHT22;50401;48.188;11.566;2022-11-15T02:04:25;6.06;79.74
64111;DHT22;50401;48.188;11.566;2022-11-15T02:06:51;6.06;79.55
64111;DHT22;50401;48.188;11.566;2022-11-15T02:09:17;6.06;79.48
64111;DHT22;50401;48.188;11.566;2022-11-15T02:11:42;6.10;79.44
64111;DHT22;50401;48.188;11.566;2022-11-15T02:14:08;6.14;79.38
64111;DHT22;50401;48.188;11.566;2022-11-15T02:16:44;6.16;79.18
64111;DHT22;50401;48.188;11.566;2022-11-15T02:33:08;6.16;79.12
64111;DHT22;50401;48.188;11.566;2022-11-15T02:38:59;6.10;78.99
64111;DHT22;50401;48.188;11.566;2022-11-15T02:41:02;6.10;78.92
64111;DHT22;50401;48.188;11.566;2022-11-15T02:43:32;6.10;79.04
64111;DHT22;50401;48.188;11.566;2022-11-15T02:46:22;6.10;79.09
64111;DHT22;50401;48.188;11.566;2022-11-15T02:49:09;6.09;79.26
64111;DHT22;50401;48.188;11.566;2022-11-15T02:51:35;6.09;79.19
64111;DHT22;50401;48.188;11.566;2022-11-15T02:54:00;6.04;79.18
64111;DHT22;50401;48.188;11.566;2022-11-15T02:56:25;6.04;79.13
64111;DHT22;50401;48.188;11.566;2022-11-15T02:59:00;6.04;79.16
64111;DHT22;50401;48.188;11.566;2022-11-15T03:01:37;6.02;79.15
64111;DHT22;50401;48.188;11.566;2022-11-15T03:06:42;5.95;79.15
64111;DHT22;50401;48.188;11.566;2022-11-15T03:09:17;5.78;79.34
64111;DHT22;50401;48.188;11.566;2022-11-15T03:11:47;5.73;80.07
64111;DHT22;50401;48.188;11.566;2022-11-15T03:19:14;5.78;79.51
64111;DHT22;50401;48.188;11.566;2022-11-15T03:21:41;5.76;79.52
64111;DHT22;50401;48.188;11.566;2022-11-15T03:24:07;5.80;79.39
64111;DHT22;50401;48.188;11.566;2022-11-15T03:26:33;5.79;79.17
64111;DHT22;50401;48.188;11.566;2022-11-15T03:29:13;5.47;79.99
64111;DHT22;50401;48.188;11.566;2022-11-15T03:31:40;5.66;79.69
64111;DHT22;50401;48.188;11.566;2022-11-15T03:34:32;5.27;80.16
64111;DHT22;50401;48.188;11.566;2022-11-15T03:36:59;5.27;80.54
64111;DHT22;50401;48.188;11.566;2022-11-15T03:39:25;5.22;80.34
64111;DHT22;50401;48.188;11.566;2022-11-15T03:42:13;5.26;80.51
64111;DHT22;50401;48.188;11.566;2022-11-15T03:47:31;5.59;79.61
64111;DHT22;50401;48.188;11.566;2022-11-15T03:50:07;5.59;79.30
64111;DHT22;50401;48.188;11.566;2022-11-15T03:52:33;5.63;79.20
64111;DHT22;50401;48.188;11.566;2022-11-15T03:54:59;5.71;79.17
64111;DHT22;50401;48.188;11.566;2022-11-15T03:57:25;5.73;79.05
64111;DHT22;50401;48.188;11.566;2022-11-15T03:59:50;5.72;79.00
64111;DHT22;50401;48.188;11.566;2022-11-15T04:02:16;5.62;78.83
64111;DHT22;50401;48.188;11.566;2022-11-15T04:04:41;5.47;79.17
64111;DHT22;50401;48.188;11.566;2022-11-15T04:07:06;5.26;79.65
64111;DHT22;50401;48.188;11.566;2022-11-15T04:09:31;5.12;80.19
64111;DHT22;50401;48.188;11.566;2022-11-15T04:11:57;5.08;80.20
64111;DHT22;50401;48.188;11.566;2022-11-15T04:14:22;5.03;80.27
64111;DHT22;50401;48.188;11.566;2022-11-15T04:16:47;5.05;80.37
64111;DHT22;50401;48.188;11.566;2022-11-15T04:19:13;5.20;80.07
64111;DHT22;50401;48.188;11.566;2022-11-15T04:21:56;5.33;79.75
64111;DHT22;50401;48.188;11.566;2022-11-15T04:24:41;5.37;79.40
64111;DHT22;50401;48.188;11.566;2022-11-15T04:27:06;5.36;79.43
64111;DHT22;50401;48.188;11.566;2022-11-15T04:29:31;5.15;79.73
64111;DHT22;50401;48.188;11.566;2022-11-15T04:32:00;5.23;79.79
64111;DHT22;50401;48.188;11.566;2022-11-15T04:34:25;5.30;79.58
64111;DHT22;50401;48.188;11.566;2022-11-15T04:36:51;5.30;79.40
64111;DHT22;50401;48.188;11.566;2022-11-15T04:39:35;5.09;80.18
64111;DHT22;50401;48.188;11.566;2022-11-15T04:42:00;5.22;79.92
64111;DHT22;50401;48.188;11.566;2022-11-15T04:44:25;5.24;79.52
64111;DHT22;50401;48.188;11.566;2022-11-15T04:46:50;5.28;79.29
64111;DHT22;50401;48.188;11.566;2022-11-15T04:49:16;5.40;79.02
64111;DHT22;50401;48.188;11.566;2022-11-15T04:51:41;5.41;79.00
64111;DHT22;50401;48.188;11.566;2022-11-15T04:54:06;5.47;78.70
64111;DHT22;50401;48.188;11.566;2022-11-15T04:56:31;5.38;78.32
64111;DHT22;50401;48.188;11.566;2022-11-15T04:58:57;5.52;78.34
64111;DHT22;50401;48.188;11.566;2022-11-15T05:01:22;5.51;78.20
64111;DHT22;50401;48.188;11.566;2022-11-15T05:03:47;5.55;78.41
64111;DHT22;50401;48.188;11.566;2022-11-15T05:06:31;5.55;78.30
64111;DHT22;50401;48.188;11.566;2022-11-15T05:08:57;5.58;78.46
64111;DHT22;50401;48.188;11.566;2022-11-15T05:11:22;5.58;78.31
64111;DHT22;50401;48.188;11.566;2022-11-15T05:13:48;5.59;78.25
64111;DHT22;50401;48.188;11.566;2022-11-15T05:16:13;5.63;78.28
64111;DHT22;50401;48.188;11.566;2022-11-15T05:18:38;5.63;78.27
64111;DHT22;50401;48.188;11.566;2022-11-15T05:21:08;5.66;78.25
64111;DHT22;50401;48.188;11.566;2022-11-15T05:23:33;5.59;78.12
64111;DHT22;50401;48.188;11.566;2022-11-15T05:25:59;5.58;78.19
64111;DHT22;50401;48.188;11.566;2022-11-15T05:28:25;5.62;77.60
64111;DHT22;50401;48.188;11.566;2022-11-15T05:30:50;5.45;77.96
64111;DHT22;50401;48.188;11.566;2022-11-15T05:33:15;5.44;77.60
64111;DHT22;50401;48.188;11.566;2022-11-15T05:35:41;5.50;77.45
64111;DHT22;50401;48.188;11.566;2022-11-15T05:38:07;5.45;77.54
64111;DHT22;50401;48.188;11.566;2022-11-15T05:40:32;5.50;77.50
64111;DHT22;50401;48.188;11.566;2022-11-15T05:42:58;5.51;77.29
64111;DHT22;50401;48.188;11.566;2022-11-15T05:45:25;5.45;77.24
64111;DHT22;50401;48.188;11.566;2022-11-15T05:47:51;5.54;77.07
64111;DHT22;50401;48.188;11.566;2022-11-15T05:50:17;5.55;77.04
64111;DHT22;50401;48.188;11.566;2022-11-15T05:52:43;5.58;77.19
64111;DHT22;50401;48.188;11.566;2022-11-15T05:55:09;5.62;77.15
64111;DHT22;50401;48.188;11.566;2022-11-15T05:57:34;5.62;77.14
64111;DHT22;50401;48.188;11.566;2022-11-15T06:00:00;5.59;76.76
64111;DHT22;50401;48.188;11.566;2022-11-15T06:02:25;5.62;77.07
64111;DHT22;50401;48.188;11.566;2022-11-15T06:04:54;5.68;76.87
64111;DHT22;50401;48.188;11.566;2022-11-15T06:07:19;5.44;77.05
64111;DHT22;50401;48.188;11.566;2022-11-15T06:09:44;5.37;77.09
64111;DHT22;50401;48.188;11.566;2022-11-15T06:12:10;5.38;77.04
64111;DHT22;50401;48.188;11.566;2022-11-15T06:14:35;5.48;77.06
64111;DHT22;50401;48.188;11.566;2022-11-15T06:17:00;5.43;76.91
64111;DHT22;50401;48.188;11.566;2022-11-15T06:19:25;5.26;77.39
64111;DHT22;50401;48.188;11.566;2022-11-15T06:21:51;5.40;77.11
64111;DHT22;50401;48.188;11.566;2022-11-15T06:24:16;5.50;76.95
64111;DHT22;50401;48.188;11.566;2022-11-15T06:26:41;5.45;77.06
64111;DHT22;50401;48.188;11.566;2022-11-15T06:29:06;5.52;77.05
64111;DHT22;50401;48.188;11.566;2022-11-15T06:31:33;5.58;76.65
64111;DHT22;50401;48.188;11.566;2022-11-15T06:33:58;5.63;76.49
64111;DHT22;50401;48.188;11.566;2022-11-15T06:36:23;5.66;76.43
64111;DHT22;50401;48.188;11.566;2022-11-15T06:38:48;5.45;76.78
64111;DHT22;50401;48.188;11.566;2022-11-15T06:41:14;5.48;76.61
64111;DHT22;50401;48.188;11.566;2022-11-15T06:43:39;5.58;77.01
64111;DHT22;50401;48.188;11.566;2022-11-15T06:46:05;5.92;76.51
64111;DHT22;50401;48.188;11.566;2022-11-15T06:48:31;6.91;74.77
64111;DHT22;50401;48.188;11.566;2022-11-15T06:50:58;8.59;68.99
64111;DHT22;50401;48.188;11.566;2022-11-15T06:53:23;10.29;63.63
64111;DHT22;50401;48.188;11.566;2022-11-15T06:55:49;10.96;60.26
64111;DHT22;50401;48.188;11.566;2022-11-15T06:58:14;9.15;64.94
64111;DHT22;50401;48.188;11.566;2022-11-15T07:00:40;8.35;67.38
64111;DHT22;50401;48.188;11.566;2022-11-15T07:03:05;8.56;67.67
64111;DHT22;50401;48.188;11.566;2022-11-15T07:05:30;10.19;64.15
64111;DHT22;50401;48.188;11.566;2022-11-15T07:07:56;12.57;57.42
64111;DHT22;50401;48.188;11.566;2022-11-15T07:10:22;14.22;51.38
64111;DHT22;50401;48.188;11.566;2022-11-15T07:12:49;14.19;50.97
64111;DHT22;50401;48.188;11.566;2022-11-15T07:15:15;16.08;46.59
64111;DHT22;50401;48.188;11.566;2022-11-15T07:17:40;17.15;43.50
64111;DHT22;50401;48.188;11.566;2022-11-15T07:20:06;17.99;41.76
64111;DHT22;50401;48.188;11.566;2022-11-15T07:22:32;18.72;40.02
64111;DHT22;50401;48.188;11.566;2022-11-15T07:24:57;19.56;38.75
64111;DHT22;50401;48.188;11.566;2022-11-15T07:27:22;20.67;36.72
64111;DHT22;50401;48.188;11.566;2022-11-15T07:29:48;21.32;35.43
64111;DHT22;50401;48.188;11.566;2022-11-15T07:32:13;22.19;33.90
64111;DHT22;50401;48.188;11.566;2022-11-15T07:34:38;22.72;33.06
64111;DHT22;50401;48.188;11.566;2022-11-15T07:37:04;23.42;31.63
64111;DHT22;50401;48.188;11.566;2022-11-15T07:39:29;23.22;31.93
64111;DHT22;50401;48.188;11.566;2022-11-15T07:41:54;24.09;30.79
64111;DHT22;50401;48.188;11.566;2022-11-15T07:44:39;24.57;30.32
64111;DHT22;50401;48.188;11.566;2022-11-15T07:47:05;24.68;30.11
64111;DHT22;50401;48.188;11.566;2022-11-15T07:49:30;23.34;31.37
64111;DHT22;50401;48.188;11.566;2022-11-15T07:51:55;20.91;34.89
64111;DHT22;50401;48.188;11.566;2022-11-15T07:54:20;19.63;37.19
64111;DHT22;50401;48.188;11.566;2022-11-15T07:56:46;21.10;35.53
64111;DHT22;50401;48.188;11.566;2022-11-15T07:59:11;22.87;32.14
64111;DHT22;50401;48.188;11.566;2022-11-15T08:01:36;24.72;29.69
64111;DHT22;50401;48.188;11.566;2022-11-15T08:04:02;26.06;28.04
64111;DHT22;50401;48.188;11.566;2022-11-15T08:06:27;26.69;27.34
64111;DHT22;50401;48.188;11.566;2022-11-15T08:08:52;27.13;26.68
64111;DHT22;50401;48.188;11.566;2022-11-15T08:11:18;20.87;34.16
64111;DHT22;50401;48.188;11.566;2022-11-15T08:13:43;18.31;39.05
64111;DHT22;50401;48.188;11.566;2022-11-15T08:16:08;20.24;36.08
64111;DHT22;50401;48.188;11.566;2022-11-15T08:18:34;20.56;36.28
64111;DHT22;50401;48.188;11.566;2022-11-15T08:20:59;18.77;37.35
64111;DHT22;50401;48.188;11.566;2022-11-15T08:23:25;19.77;36.79
64111;DHT22;50401;48.188;11.566;2022-11-15T08:25:50;18.31;40.26
64111;DHT22;50401;48.188;11.566;2022-11-15T08:28:16;16.93;41.97
64111;DHT22;50401;48.188;11.566;2022-11-15T08:30:41;17.67;42.06
64111;DHT22;50401;48.188;11.566;2022-11-15T08:33:10;20.06;36.68
64111;DHT22;50401;48.188;11.566;2022-11-15T08:35:35;19.45;37.31
64111;DHT22;50401;48.188;11.566;2022-11-15T08:38:01;16.75;42.85
64111;DHT22;50401;48.188;11.566;2022-11-15T08:40:26;16.30;43.42
64111;DHT22;50401;48.188;11.566;2022-11-15T08:42:52;17.92;40.61
64111;DHT22;50401;48.188;11.566;2022-11-15T08:45:17;18.00;39.72
64111;DHT22;50401;48.188;11.566;2022-11-15T08:47:42;20.28;36.72
64111;DHT22;50401;48.188;11.566;2022-11-15T08:50:08;22.71;32.38
64111;DHT22;50401;48.188;11.566;2022-11-15T08:52:33;24.10;30.13
64111;DHT22;50401;48.188;11.566;2022-11-15T08:55:00;25.33;28.97
64111;DHT22;50401;48.188;11.566;2022-11-15T08:57:28;25.90;27.90
64111;DHT22;50401;48.188;11.566;2022-11-15T08:59:53;26.52;27.43
64111;DHT22;50401;48.188;11.566;2022-11-15T09:02:18;26.76;27.33
64111;DHT22;50401;48.188;11.566;2022-11-15T09:04:43;27.21;27.32
64111;DHT22;50401;48.188;11.566;2022-11-15T09:07:11;25.52;28.62
64111;DHT22;50401;48.188;11.566;2022-11-15T09:09:38;26.14;27.67
64111;DHT22;50401;48.188;11.566;2022-11-15T09:12:04;26.54;26.98
64111;DHT22;50401;48.188;11.566;2022-11-15T09:14:29;23.47;29.68
64111;DHT22;50401;48.188;11.566;2022-11-15T09:16:55;23.85;30.06
64111;DHT22;50401;48.188;11.566;2022-11-15T09:19:20;19.54;36.32
64111;DHT22;50401;48.188;11.566;2022-11-15T09:21:45;20.76;35.21
64111;DHT22;50401;48.188;11.566;2022-11-15T09:24:11;20.80;35.33
64111;DHT22;50401;48.188;11.566;2022-11-15T09:26:36;21.08;34.85
64111;DHT22;50401;48.188;11.566;2022-11-15T09:29:01;17.60;40.73
64111;DHT22;50401;48.188;11.566;2022-11-15T09:31:27;18.45;40.20
64111;DHT22;50401;48.188;11.566;2022-11-15T09:33:52;17.50;41.53
64111;DHT22;50401;48.188;11.566;2022-11-15T09:36:17;14.87;46.33
64111;DHT22;50401;48.188;11.566;2022-11-15T09:38:43;13.93;49.59
64111;DHT22;50401;48.188;11.566;2022-11-15T09:51:13;11.28;57.71
64111;DHT22;50401;48.188;11.566;2022-11-15T09:53:41;11.71;56.99
64111;DHT22;50401;48.188;11.566;2022-11-15T09:56:15;11.44;57.62
64111;DHT22;50401;48.188;11.566;2022-11-15T09:58:59;11.30;58.16
64111;DHT22;50401;48.188;11.566;2022-11-15T10:01:34;11.96;57.22
64111;DHT22;50401;48.188;11.566;2022-11-15T10:04:01;12.20;56.26
64111;DHT22;50401;48.188;11.566;2022-11-15T10:06:27;11.65;57.19
64111;DHT22;50401;48.188;11.566;2022-11-15T10:11:22;11.62;57.45
64111;DHT22;50401;48.188;11.566;2022-11-15T10:13:48;12.07;57.05
64111;DHT22;50401;48.188;11.566;2022-11-15T10:19:39;12.45;55.92
64111;DHT22;50401;48.188;11.566;2022-11-15T10:24:39;12.16;57.34
64111;DHT22;50401;48.188;11.566;2022-11-15T10:27:10;12.14;57.27
64111;DHT22;50401;48.188;11.566;2022-11-15T10:29:36;11.82;57.89
64111;DHT22;50401;48.188;11.566;2022-11-15T10:32:07;11.85;57.61
64111;DHT22;50401;48.188;11.566;2022-11-15T10:34:34;11.71;57.76
64111;DHT22;50401;48.188;11.566;2022-11-15T10:37:00;11.72;57.89
64111;DHT22;50401;48.188;11.566;2022-11-15T10:39:27;11.75;58.03
64111;DHT22;50401;48.188;11.566;2022-11-15T10:41:52;11.76;57.02
64111;DHT22;50401;48.188;11.566;2022-11-15T10:44:30;11.89;56.87
64111;DHT22;50401;48.188;11.566;2022-11-15T10:49:22;11.87;56.94
64111;DHT22;50401;48.188;11.566;2022-11-15T10:51:57;11.89;56.65
64111;DHT22;50401;48.188;11.566;2022-11-15T10:54:23;12.06;56.59
64111;DHT22;50401;48.188;11.566;2022-11-15T10:56:53;12.08;55.86
64111;DHT22;50401;48.188;11.566;2022-11-15T11:01:54;12.14;55.70
64111;DHT22;50401;48.188;11.566;2022-11-15T11:04:20;12.24;55.84
64111;DHT22;50401;48.188;11.566;2022-11-15T11:06:46;12.27;56.24
64111;DHT22;50401;48.188;11.566;2022-11-15T11:09:21;12.45;55.87
64111;DHT22;50401;48.188;11.566;2022-11-15T11:11:48;12.16;56.15
64111;DHT22;50401;48.188;11.566;2022-11-15T11:14:24;12.30;55.87
64111;DHT22;50401;48.188;11.566;2022-11-15T11:21:58;12.28;55.80
64111;DHT22;50401;48.188;11.566;2022-11-15T11:27:07;12.42;55.73
64111;DHT22;50401;48.188;11.566;2022-11-15T11:32:06;12.52;54.76
64111;DHT22;50401;48.188;11.566;2022-11-15T11:47:37;12.65;54.82
64111;DHT22;50401;48.188;11.566;2022-11-15T11:50:10;12.69;53.94
64111;DHT22;50401;48.188;11.566;2022-11-15T11:52:54;12.62;54.12
64111;DHT22;50401;48.188;11.566;2022-11-15T11:58:15;12.76;55.38
64111;DHT22;50401;48.188;11.566;2022-11-15T12:00:47;12.75;56.19
64111;DHT22;50401;48.188;11.566;2022-11-15T12:03:26;12.57;56.62
64111;DHT22;50401;48.188;11.566;2022-11-15T12:05:57;12.76;57.18
64111;DHT22;50401;48.188;11.566;2022-11-15T12:08:25;12.72;56.97
64111;DHT22;50401;48.188;11.566;2022-11-15T12:10:54;12.83;57.42
64111;DHT22;50401;48.188;11.566;2022-11-15T12:13:23;12.90;57.85
64111;DHT22;50401;48.188;11.566;2022-11-15T12:18:23;12.84;59.16
64111;DHT22;50401;48.188;11.566;2022-11-15T12:20:53;12.90;58.86
64111;DHT22;50401;48.188;11.566;2022-11-15T12:23:24;12.94;58.58
64111;DHT22;50401;48.188;11.566;2022-11-15T12:25:58;13.00;58.46
64111;DHT22;50401;48.188;11.566;2022-11-15T12:30:54;12.98;58.94
64111;DHT22;50401;48.188;11.566;2022-11-15T12:36:08;13.01;58.99
64111;DHT22;50401;48.188;11.566;2022-11-15T12:41:16;13.03;59.79
64111;DHT22;50401;48.188;11.566;2022-11-15T12:43:42;13.04;59.92
64111;DHT22;50401;48.188;11.566;2022-11-15T12:46:12;13.04;60.18
64111;DHT22;50401;48.188;11.566;2022-11-15T12:51:03;13.03;60.58
64111;DHT22;50401;48.188;11.566;2022-11-15T12:53:30;13.03;60.41
64111;DHT22;50401;48.188;11.566;2022-11-15T12:58:27;13.07;60.17
64111;DHT22;50401;48.188;11.566;2022-11-15T13:00:54;13.11;60.06
64111;DHT22;50401;48.188;11.566;2022-11-15T13:03:20;13.15;60.18
64111;DHT22;50401;48.188;11.566;2022-11-15T13:05:51;13.22;59.96
64111;DHT22;50401;48.188;11.566;2022-11-15T13:08:39;13.26;59.90
64111;DHT22;50401;48.188;11.566;2022-11-15T13:13:49;13.22;60.40
64111;DHT22;50401;48.188;11.566;2022-11-15T13:16:17;13.29;60.71
64111;DHT22;50401;48.188;11.566;2022-11-15T13:18:48;13.25;60.87
64111;DHT22;50401;48.188;11.566;2022-11-15T13:21:19;13.31;60.75
64111;DHT22;50401;48.188;11.566;2022-11-15T13:24:04;13.36;60.62
64111;DHT22;50401;48.188;11.566;2022-11-15T13:26:29;13.41;60.85
64111;DHT22;50401;48.188;11.566;2022-11-15T13:28:56;13.41;61.10
64111;DHT22;50401;48.188;11.566;2022-11-15T13:31:22;13.42;60.69
64111;DHT22;50401;48.188;11.566;2022-11-15T13:33:49;13.46;60.90
64111;DHT22;50401;48.188;11.566;2022-11-15T13:36:24;13.46;61.09
64111;DHT22;50401;48.188;11.566;2022-11-15T13:38:57;13.41;61.13
64111;DHT22;50401;48.188;11.566;2022-11-15T13:41:24;13.43;60.93
64111;DHT22;50401;48.188;11.566;2022-11-15T13:43:50;13.45;60.84
64111;DHT22;50401;48.188;11.566;2022-11-15T13:46:17;13.42;60.79
64111;DHT22;50401;48.188;11.566;2022-11-15T13:48:44;13.41;60.83
64111;DHT22;50401;48.188;11.566;2022-11-15T13:53:35;13.34;60.89
64111;DHT22;50401;48.188;11.566;2022-11-15T13:56:02;13.34;61.10
64111;DHT22;50401;48.188;11.566;2022-11-15T13:58:29;13.31;62.32
64111;DHT22;50401;48.188;11.566;2022-11-15T14:01:04;13.22;62.98
64111;DHT22;50401;48.188;11.566;2022-11-15T14:03:31;13.22;63.46
64111;DHT22;50401;48.188;11.566;2022-11-15T14:08:31;13.10;64.07
64111;DHT22;50401;48.188;11.566;2022-11-15T14:11:09;13.06;64.14
64111;DHT22;50401;48.188;11.566;2022-11-15T14:13:37;13.04;64.19
64111;DHT22;50401;48.188;11.566;2022-11-15T14:16:16;13.06;63.98
64111;DHT22;50401;48.188;11.566;2022-11-15T14:18:43;13.01;64.34
64111;DHT22;50401;48.188;11.566;2022-11-15T14:21:09;13.00;64.70
64111;DHT22;50401;48.188;11.566;2022-11-15T14:23:34;12.98;64.97
64111;DHT22;50401;48.188;11.566;2022-11-15T14:26:00;12.97;64.84
64111;DHT22;50401;48.188;11.566;2022-11-15T14:30:55;13.00;64.43
64111;DHT22;50401;48.188;11.566;2022-11-15T14:33:30;12.97;64.64
64111;DHT22;50401;48.188;11.566;2022-11-15T14:35:57;12.93;64.90
64111;DHT22;50401;48.188;11.566;2022-11-15T14:38:24;12.87;65.38
64111;DHT22;50401;48.188;11.566;2022-11-15T14:40:49;12.80;65.76
64111;DHT22;50401;48.188;11.566;2022-11-15T14:43:15;12.79;65.90
64111;DHT22;50401;48.188;11.566;2022-11-15T14:45:40;12.77;66.06
64111;DHT22;50401;48.188;11.566;2022-11-15T14:48:05;12.76;66.29
64111;DHT22;50401;48.188;11.566;2022-11-15T14:50:31;12.67;66.61
64111;DHT22;50401;48.188;11.566;2022-11-15T14:52:57;12.66;66.68
64111;DHT22;50401;48.188;11.566;2022-11-15T14:57:50;12.59;67.02
64111;DHT22;50401;48.188;11.566;2022-11-15T15:00:17;12.55;67.14
64111;DHT22;50401;48.188;11.566;2022-11-15T15:02:43;12.49;67.54
64111;DHT22;50401;48.188;11.566;2022-11-15T15:07:37;12.37;68.23
64111;DHT22;50401;48.188;11.566;2022-11-15T15:10:02;12.32;68.35
64111;DHT22;50401;48.188;11.566;2022-11-15T15:12:28;12.28;68.48
64111;DHT22;50401;48.188;11.566;2022-11-15T15:14:54;12.25;68.66
64111;DHT22;50401;48.188;11.566;2022-11-15T15:17:19;12.20;68.82
64111;DHT22;50401;48.188;11.566;2022-11-15T15:19:45;12.16;69.05
64111;DHT22;50401;48.188;11.566;2022-11-15T15:24:42;12.06;69.61
64111;DHT22;50401;48.188;11.566;2022-11-15T15:27:07;11.98;69.84
64111;DHT22;50401;48.188;11.566;2022-11-15T15:29:33;11.97;70.07
64111;DHT22;50401;48.188;11.566;2022-11-15T15:31:58;11.90;70.34
64111;DHT22;50401;48.188;11.566;2022-11-15T15:34:23;11.86;70.53
64111;DHT22;50401;48.188;11.566;2022-11-15T15:36:48;11.82;70.64
64111;DHT22;50401;48.188;11.566;2022-11-15T15:39:14;11.75;70.87
64111;DHT22;50401;48.188;11.566;2022-11-15T15:41:39;11.71;70.91
64111;DHT22;50401;48.188;11.566;2022-11-15T15:44:04;11.66;71.20
64111;DHT22;50401;48.188;11.566;2022-11-15T15:46:30;11.62;71.32
64111;DHT22;50401;48.188;11.566;2022-11-15T15:48:55;11.57;71.54
64111;DHT22;50401;48.188;11.566;2022-11-15T15:51:20;11.52;71.65
64111;DHT22;50401;48.188;11.566;2022-11-15T15:53:46;11.45;71.81
64111;DHT22;50401;48.188;11.566;2022-11-15T15:56:11;11.42;72.02
64111;DHT22;50401;48.188;11.566;2022-11-15T15:58:36;11.39;72.10
64111;DHT22;50401;48.188;11.566;2022-11-15T16:01:02;11.39;72.11
64111;DHT22;50401;48.188;11.566;2022-11-15T16:03:27;11.35;72.21
64111;DHT22;50401;48.188;11.566;2022-11-15T16:05:53;11.31;72.29
64111;DHT22;50401;48.188;11.566;2022-11-15T16:08:19;11.30;72.35
64111;DHT22;50401;48.188;11.566;2022-11-15T16:10:45;11.27;72.37
64111;DHT22;50401;48.188;11.566;2022-11-15T16:13:10;11.23;72.53
64111;DHT22;50401;48.188;11.566;2022-11-15T16:15:35;11.17;72.69
64111;DHT22;50401;48.188;11.566;2022-11-15T16:18:01;11.16;72.66
64111;DHT22;50401;48.188;11.566;2022-11-15T16:23:02;11.16;72.65
64111;DHT22;50401;48.188;11.566;2022-11-15T16:25:28;11.17;72.61
64111;DHT22;50401;48.188;11.566;2022-11-15T16:27:53;11.16;72.56
64111;DHT22;50401;48.188;11.566;2022-11-15T16:30:20;11.16;72.56
64111;DHT22;50401;48.188;11.566;2022-11-15T16:32:47;11.19;72.65
64111;DHT22;50401;48.188;11.566;2022-11-15T16:35:13;11.20;72.51
64111;DHT22;50401;48.188;11.566;2022-11-15T16:37:39;11.21;72.45
64111;DHT22;50401;48.188;11.566;2022-11-15T16:40:27;11.20;72.36
64111;DHT22;50401;48.188;11.566;2022-11-15T16:42:51;11.23;72.12
64111;DHT22;50401;48.188;11.566;2022-11-15T16:45:16;11.21;71.94
64111;DHT22;50401;48.188;11.566;2022-11-15T16:47:42;11.21;72.22
64111;DHT22;50401;48.188;11.566;2022-11-15T16:50:13;11.21;72.32
64111;DHT22;50401;48.188;11.566;2022-11-15T16:52:42;11.23;72.40
64111;DHT22;50401;48.188;11.566;2022-11-15T16:55:08;11.24;72.43
64111;DHT22;50401;48.188;11.566;2022-11-15T16:57:33;11.24;72.39
64111;DHT22;50401;48.188;11.566;2022-11-15T16:59:58;11.24;72.51
64111;DHT22;50401;48.188;11.566;2022-11-15T17:02:24;11.24;72.62
64111;DHT22;50401;48.188;11.566;2022-11-15T17:04:49;11.23;72.70
64111;DHT22;50401;48.188;11.566;2022-11-15T17:07:14;11.20;72.88
64111;DHT22;50401;48.188;11.566;2022-11-15T17:09:39;11.20;72.91
64111;DHT22;50401;48.188;11.566;2022-11-15T17:12:05;11.20;72.95
64111;DHT22;50401;48.188;11.566;2022-11-15T17:14:30;11.16;73.07